Time;durP1;ratioP1;P1;durP2;ratioP2;P2;SDS_P1;SDS_P2;PMS_P1;PMS_P2;Temp;Humidity;BMP_temperature;BMP_pressure;BME280_temperature;BME280_humidity;BME280_pressure;Samples;Min_cycle;Max_cycle;Signal;HPM_P1;HPM_P2
2021/06/18 00:02:19;;;;;;;4.33;3.37;;;;;;;21.66;90.71;97259.66;5002063;28;20229;-66
2021/06/18 00:04:46;;;;;;;3.60;3.30;;;;;;;21.69;90.96;97262.31;5011059;28;20680;-66
2021/06/18 00:07:12;;;;;;;3.90;3.50;;;;;;;21.39;90.45;97206.97;5011717;28;20225;-65
2021/06/18 00:09:39;;;;;;;3.77;3.37;;;;;;;21.63;91.29;97271.50;5010949;28;20660;-65
2021/06/18 00:12:06;;;;;;;3.73;3.43;;;;;;;20.92;91.32;97126.53;5012309;28;20285;-66
2021/06/18 00:14:33;;;;;;;3.37;3.10;;;;;;;21.30;91.36;97189.72;5010422;28;20198;-66
2021/06/18 00:16:59;;;;;;;3.53;3.23;;;;;;;21.31;91.50;97196.56;5011795;28;20316;-66
2021/06/18 00:19:26;;;;;;;4.40;3.60;;;;;;;20.34;91.29;97058.63;4994305;28;20214;-66
2021/06/18 00:21:53;;;;;;;3.80;3.50;;;;;;;21.69;91.44;97261.41;5009995;28;20846;-66
2021/06/18 00:24:19;;;;;;;4.07;3.67;;;;;;;21.56;91.52;97251.72;5013343;28;20305;-66
2021/06/18 00:26:46;;;;;;;3.53;3.23;;;;;;;21.30;91.47;97182.06;5010459;28;20236;-66
2021/06/18 00:29:12;;;;;;;3.50;3.23;;;;;;;21.69;91.73;97252.06;5011987;28;20195;-66
2021/06/18 00:31:39;;;;;;;3.90;3.50;;;;;;;21.35;91.67;97188.13;5010116;28;20226;-66
2021/06/18 00:34:05;;;;;;;4.10;3.60;;;;;;;21.71;91.60;97244.44;5009159;28;20659;-65
2021/06/18 00:36:32;;;;;;;4.20;3.53;;;;;;;21.41;91.56;97193.38;5010361;28;20586;-66
2021/06/18 00:38:59;;;;;;;4.00;3.70;;;;;;;21.71;91.53;97245.28;5011257;28;20226;-66
2021/06/18 00:41:25;;;;;;;4.00;3.67;;;;;;;21.70;91.63;97242.69;5011413;28;20237;-66
2021/06/18 00:43:53;;;;;;;3.60;3.30;;;;;;;21.69;91.09;97246.94;5012703;28;20264;-67
2021/06/18 00:46:20;;;;;;;3.53;3.33;;;;;;;21.37;91.03;97198.38;5011554;28;20631;-66
2021/06/18 00:48:47;;;;;;;3.80;3.40;;;;;;;20.95;90.80;97123.22;5000303;28;20231;-65
2021/06/18 00:51:14;;;;;;;4.30;3.40;;;;;;;21.69;91.39;97244.41;5007538;28;20203;-65
2021/06/18 00:53:41;;;;;;;4.23;3.70;;;;;;;21.69;91.44;97241.84;5010340;28;20195;-65
2021/06/18 00:56:08;;;;;;;3.93;3.53;;;;;;;20.98;91.39;97130.97;5008905;28;20244;-65
2021/06/18 00:58:34;;;;;;;5.17;3.40;;;;;;;21.68;91.63;97240.09;5009086;28;20699;-66
2021/06/18 01:01:01;;;;;;;5.07;3.70;;;;;;;19.23;91.30;96820.13;5007961;28;20202;-66
2021/06/18 01:03:27;;;;;;;3.80;3.50;;;;;;;20.67;91.59;97062.91;5009728;28;20237;-66
2021/06/18 01:05:54;;;;;;;4.87;3.97;;;;;;;21.69;92.12;97236.72;5011087;28;20285;-66
2021/06/18 01:08:38;;;;;;;4.10;3.57;;;;;;;21.31;91.62;97165.88;4999789;28;20659;-66
2021/06/18 01:11:06;;;;;;;3.63;3.33;;;;;;;19.92;91.70;96930.75;5006965;28;20203;-66
2021/06/18 01:13:42;;;;;;;4.10;3.70;;;;;;;21.69;91.98;97234.16;5010867;28;20289;-66
2021/06/18 01:16:15;;;;;;;4.00;3.60;;;;;;;21.39;91.87;97186.53;5006836;28;20312;-66
2021/06/18 01:18:46;;;;;;;3.60;3.30;;;;;;;20.33;91.72;97004.16;5006047;28;20672;-66
2021/06/18 01:21:14;;;;;;;3.87;3.53;;;;;;;21.70;91.75;97243.56;5009780;28;20715;-66
2021/06/18 01:23:57;;;;;;;3.83;3.53;;;;;;;21.70;91.86;97241.00;5010799;28;20637;-66
2021/06/18 01:26:24;;;;;;;4.07;3.67;;;;;;;21.70;91.65;97237.56;5009394;28;20290;-66
2021/06/18 01:28:55;;;;;;;3.83;3.43;;;;;;;21.12;91.71;97129.63;5011158;28;20722;-66
2021/06/18 01:31:31;;;;;;;3.87;3.57;;;;;;;19.98;91.63;96963.22;4999474;28;20615;-66
2021/06/18 01:34:04;;;;;;;3.87;3.47;;;;;;;21.69;91.36;97234.16;4995139;28;20206;-66
2021/06/18 01:36:31;;;;;;;3.90;3.60;;;;;;;21.68;91.68;97231.56;5007427;28;20202;-66
2021/06/18 01:38:58;;;;;;;4.50;3.50;;;;;;;21.68;91.45;97232.41;4994333;28;20236;-64
2021/06/18 01:41:26;;;;;;;3.77;3.47;;;;;;;20.11;91.70;96963.56;4992215;28;20268;-68
2021/06/18 01:43:53;;;;;;;3.87;3.57;;;;;;;21.30;91.97;97155.63;5001051;28;20202;-66
2021/06/18 01:46:25;;;;;;;3.57;3.27;;;;;;;21.44;91.87;97182.41;5008318;28;20630;-66
2021/06/18 01:48:58;;;;;;;4.20;3.80;;;;;;;21.51;91.66;97191.94;5000222;28;20317;-66
2021/06/18 01:51:28;;;;;;;4.03;3.73;;;;;;;21.68;92.05;97222.19;4999964;28;20619;-66
2021/06/18 01:53:57;;;;;;;3.73;3.47;;;;;;;19.81;91.61;96891.38;5001588;28;20288;-66
2021/06/18 01:56:23;;;;;;;3.67;3.37;;;;;;;21.69;91.99;97217.94;5008205;28;20468;-66
2021/06/18 01:58:52;;;;;;;4.13;3.73;;;;;;;21.68;91.97;97209.41;4995385;28;20229;-66
2021/06/18 02:01:19;;;;;;;3.90;3.60;;;;;;;21.51;91.76;97181.72;4993299;28;20202;-66
2021/06/18 02:03:46;;;;;;;3.90;3.60;;;;;;;21.65;91.96;97199.09;4995852;28;20198;-66
2021/06/18 02:06:13;;;;;;;3.80;3.50;;;;;;;21.04;91.22;97097.91;5008646;28;20244;-65
2021/06/18 02:08:40;;;;;;;4.00;3.53;;;;;;;21.69;91.89;97207.72;5008390;28;20226;-65
2021/06/18 02:11:06;;;;;;;4.17;3.80;;;;;;;19.75;91.03;96873.38;4997957;28;20614;-65
2021/06/18 02:13:33;;;;;;;3.80;3.50;;;;;;;21.69;91.82;97210.28;4998893;28;20644;-66
2021/06/18 02:16:00;;;;;;;4.00;3.70;;;;;;;21.46;91.69;97171.38;5008154;28;20212;-66
2021/06/18 02:18:27;;;;;;;3.93;3.63;;;;;;;20.54;91.38;97011.50;4999838;28;20218;-66
2021/06/18 02:20:55;;;;;;;4.00;3.70;;;;;;;19.89;91.33;96910.25;5009632;28;20264;-66
2021/06/18 02:23:22;;;;;;;4.50;3.77;;;;;;;19.58;91.54;96851.66;4993102;28;20234;-66
2021/06/18 02:25:49;;;;;;;4.07;3.67;;;;;;;21.66;91.99;97223.84;5010278;28;20285;-66
2021/06/18 02:28:15;;;;;;;3.90;3.60;;;;;;;21.66;91.73;97203.41;5001250;28;20244;-66
2021/06/18 02:30:42;;;;;;;4.00;3.70;;;;;;;21.54;91.92;97189.44;5000962;28;20229;-65
2021/06/18 02:33:12;;;;;;;4.13;3.77;;;;;;;21.67;92.09;97211.91;4998836;28;20255;-66
2021/06/18 02:35:39;;;;;;;4.07;3.77;;;;;;;21.11;91.79;97115.97;5005469;28;20245;-65
2021/06/18 02:38:07;;;;;;;4.43;4.03;;;;;;;21.29;91.88;97149.63;5012090;28;20218;-65
2021/06/18 02:40:34;;;;;;;3.97;3.67;;;;;;;20.40;92.05;96993.25;5012395;28;20249;-65
2021/06/18 02:43:00;;;;;;;4.40;4.00;;;;;;;20.34;91.77;96990.56;5030846;28;20229;-65
2021/06/18 02:45:27;;;;;;;4.13;3.73;;;;;;;21.33;92.04;97164.25;5013501;28;20237;-66
2021/06/18 02:48:14;;;;;;;7.27;4.10;;;;;;;21.68;91.71;97229.84;5028271;28;20252;-66
2021/06/18 02:50:49;;;;;;;4.63;4.23;;;;;;;21.68;92.06;97222.19;4996012;28;20274;-65
2021/06/18 02:53:49;;;;;;;4.30;3.90;;;;;;;21.68;91.99;97223.91;5016506;28;20600;-65
2021/06/18 02:56:21;;;;;;;4.43;3.97;;;;;;;21.67;91.82;97214.47;4966767;28;20238;-66
2021/06/18 02:59:07;;;;;;;3.97;3.60;;;;;;;21.67;91.88;97220.47;5012313;28;20306;-66
2021/06/18 03:01:37;;;;;;;4.00;3.70;;;;;;;21.25;92.05;97152.97;5011282;28;20241;-66
2021/06/18 03:04:04;;;;;;;4.27;3.93;;;;;;;20.55;91.73;97033.66;4996310;28;20253;-66
2021/06/18 03:06:31;;;;;;;4.27;3.87;;;;;;;20.68;91.93;97064.63;5010631;28;20221;-66
2021/06/18 03:09:00;;;;;;;4.30;3.90;;;;;;;21.40;92.22;97196.78;5004338;28;20227;-66
2021/06/18 03:11:35;;;;;;;4.10;3.80;;;;;;;21.54;92.12;97222.69;4995586;28;20294;-66
2021/06/18 03:14:03;;;;;;;4.70;4.30;;;;;;;21.66;92.09;97249.44;5011693;28;20194;-66
2021/06/18 03:16:30;;;;;;;4.30;3.90;;;;;;;19.63;91.94;96922.31;5011537;28;20257;-66
2021/06/18 03:18:57;;;;;;;4.17;3.77;;;;;;;20.57;92.18;97054.97;5002388;28;20222;-66
2021/06/18 03:21:25;;;;;;;6.40;4.03;;;;;;;21.66;92.38;97248.56;4987900;28;20630;-67
2021/06/18 03:23:51;;;;;;;5.23;3.97;;;;;;;21.65;92.22;97246.84;5012002;28;20289;-66
2021/06/18 03:26:18;;;;;;;3.90;3.60;;;;;;;21.66;92.44;97253.69;5011649;28;20290;-66
2021/06/18 03:28:45;;;;;;;4.33;3.93;;;;;;;21.66;92.46;97259.66;4992642;28;20632;-67
2021/06/18 03:31:11;;;;;;;4.37;3.90;;;;;;;21.66;92.42;97257.09;5002563;28;20229;-66
2021/06/18 03:33:39;;;;;;;4.40;3.93;;;;;;;20.67;92.10;97093.56;5001711;28;20207;-66
2021/06/18 03:36:05;;;;;;;3.97;3.60;;;;;;;20.69;92.07;97119.13;5002580;28;20256;-67
2021/06/18 03:38:32;;;;;;;4.30;4.00;;;;;;;21.14;92.20;97176.53;5012546;28;20264;-66
2021/06/18 03:40:59;;;;;;;4.80;4.40;;;;;;;21.18;92.00;97191.09;5011023;28;20306;-66
2021/06/18 03:43:26;;;;;;;4.43;4.03;;;;;;;21.49;92.17;97249.81;4996217;28;20576;-66
2021/06/18 03:45:57;;;;;;;4.13;3.83;;;;;;;21.34;91.99;97218.75;5012190;28;20638;-66
2021/06/18 03:48:24;;;;;;;4.23;3.87;;;;;;;21.49;92.07;97250.69;4993170;28;20234;-67
2021/06/18 03:50:50;;;;;;;4.60;4.27;;;;;;;19.60;92.09;96939.25;4985525;28;20242;-66
2021/06/18 03:53:17;;;;;;;3.93;3.63;;;;;;;21.48;92.36;97253.22;5003397;28;20293;-66
2021/06/18 03:55:47;;;;;;;4.80;4.40;;;;;;;20.93;92.17;97155.50;4994910;28;20599;-66
2021/06/18 03:58:16;;;;;;;5.47;4.27;;;;;;;19.50;92.16;96909.19;5000376;28;20235;-66
2021/06/18 04:00:43;;;;;;;5.93;4.20;;;;;;;21.65;92.16;97291.16;5003874;28;20606;-66
2021/06/18 04:03:09;;;;;;;4.20;3.90;;;;;;;21.24;92.36;97207.47;5002551;28;20244;-66
2021/06/18 04:05:40;;;;;;;4.10;3.80;;;;;;;21.66;92.59;97277.56;4985674;28;20205;-66
2021/06/18 04:08:06;;;;;;;4.20;3.90;;;;;;;21.66;92.30;97284.38;5011143;28;20272;-66
2021/06/18 04:10:33;;;;;;;4.37;4.07;;;;;;;21.30;92.25;97219.53;5000481;28;20285;-66
2021/06/18 04:12:59;;;;;;;4.63;4.23;;;;;;;21.66;92.50;97281.81;5010542;28;20261;-67
2021/06/18 04:15:26;;;;;;;4.33;3.93;;;;;;;19.71;92.67;96961.66;5010519;28;20309;-66
2021/06/18 04:17:53;;;;;;;4.57;4.17;;;;;;;21.26;92.63;97208.34;5010442;28;20245;-66
2021/06/18 04:20:20;;;;;;;4.73;4.07;;;;;;;21.43;92.79;97273.56;5010685;28;20715;-66
2021/06/18 04:22:49;;;;;;;4.83;4.43;;;;;;;21.35;92.34;97228.19;5011322;28;20251;-66
2021/06/18 04:25:17;;;;;;;4.33;3.93;;;;;;;21.15;92.53;97188.47;5011647;28;20241;-66
2021/06/18 04:27:43;;;;;;;4.13;3.80;;;;;;;19.32;91.50;96884.09;5010283;28;20225;-66
2021/06/18 04:30:11;;;;;;;6.13;4.53;;;;;;;20.91;92.32;97160.59;5011502;28;20671;-66
2021/06/18 04:32:39;;;;;;;4.57;4.27;;;;;;;21.49;92.59;97250.69;5007196;28;20570;-66
2021/06/18 04:35:06;;;;;;;4.63;4.23;;;;;;;21.67;92.82;97270.75;5006095;28;20238;-66
2021/06/18 04:37:36;;;;;;;7.50;4.63;;;;;;;21.38;93.15;97249.56;5010168;28;20782;-66
2021/06/18 04:40:06;;;;;;;7.40;4.37;;;;;;;21.30;93.59;97211.84;5009837;28;20293;-66
2021/06/18 04:42:33;;;;;;;5.00;4.50;;;;;;;21.43;93.71;97235.22;5014101;28;20656;-66
2021/06/18 04:44:59;;;;;;;5.37;4.57;;;;;;;19.90;93.39;96980.88;4998183;28;20241;-66
2021/06/18 04:47:26;;;;;;;6.10;5.37;;;;;;;20.56;93.35;97104.28;4992299;28;20266;-67
2021/06/18 04:49:53;;;;;;;4.93;4.53;;;;;;;21.62;94.02;97278.28;5010445;28;20233;-66
2021/06/18 04:52:19;;;;;;;5.40;4.87;;;;;;;21.49;93.30;97260.94;5012751;28;20667;-67
2021/06/18 04:54:46;;;;;;;5.33;4.83;;;;;;;20.00;93.68;97013.44;5009984;28;20644;-67
2021/06/18 04:57:13;;;;;;;4.97;4.47;;;;;;;21.70;93.48;97289.59;4994981;28;20318;-66
2021/06/18 04:59:40;;;;;;;5.00;4.53;;;;;;;21.69;93.43;97287.88;5011646;28;20198;-66
2021/06/18 05:02:06;;;;;;;5.10;4.53;;;;;;;21.71;93.34;97299.00;5010950;28;20230;-66
2021/06/18 05:04:33;;;;;;;5.40;4.90;;;;;;;21.71;93.20;97304.09;5009717;28;20227;-66
2021/06/18 05:07:00;;;;;;;5.30;4.80;;;;;;;21.71;93.33;97309.22;5011151;28;20361;-67
2021/06/18 05:09:26;;;;;;;5.07;4.67;;;;;;;21.47;93.42;97261.72;5011843;28;20212;-66
2021/06/18 05:11:53;;;;;;;5.40;4.60;;;;;;;21.72;93.21;97310.09;5012646;28;20249;-66
2021/06/18 05:14:19;;;;;;;6.17;4.70;;;;;;;21.73;93.48;97312.69;5012389;28;20799;-66
2021/06/18 05:16:46;;;;;;;5.63;4.67;;;;;;;21.50;94.40;97266.91;5010505;28;20690;-67
2021/06/18 05:19:13;;;;;;;7.70;5.03;;;;;;;20.04;93.42;97029.69;5010019;28;20195;-66
2021/06/18 05:21:39;;;;;;;7.60;4.87;;;;;;;20.52;93.55;97105.03;5010429;28;20258;-67
2021/06/18 05:24:06;;;;;;;5.13;4.73;;;;;;;21.70;93.84;97310.06;5006785;28;20202;-66
2021/06/18 05:26:34;;;;;;;5.50;5.00;;;;;;;21.51;94.73;97266.97;5010251;28;20246;-67
2021/06/18 05:29:01;;;;;;;5.97;5.37;;;;;;;21.73;95.27;97311.81;5009418;28;20253;-66
2021/06/18 05:31:27;;;;;;;5.93;5.27;;;;;;;21.34;96.05;97240.09;5009509;28;20297;-66
2021/06/18 05:33:54;;;;;;;6.03;5.43;;;;;;;21.72;96.09;97302.41;4997953;28;20202;-67
2021/06/18 05:36:20;;;;;;;9.47;5.40;;;;;;;21.74;95.57;97311.03;5006474;28;20558;-67
2021/06/18 05:38:50;;;;;;;5.60;5.17;;;;;;;21.75;95.55;97315.31;5009855;28;20302;-67
2021/06/18 05:41:17;;;;;;;5.30;4.80;;;;;;;21.54;95.37;97286.63;5010296;28;20726;-66
2021/06/18 05:43:44;;;;;;;6.50;5.20;;;;;;;21.76;95.51;97324.72;5011179;28;20220;-65
2021/06/18 05:46:10;;;;;;;5.87;5.27;;;;;;;21.64;95.49;97304.78;5007700;28;20547;-66
2021/06/18 05:48:37;;;;;;;7.10;5.10;;;;;;;20.68;95.13;97133.56;5049703;22;20698;-66
2021/06/18 05:51:03;;;;;;;8.60;5.43;;;;;;;21.77;94.90;97312.81;5025240;28;20227;-65
2021/06/18 05:53:30;;;;;;;6.37;5.53;;;;;;;21.78;94.40;97317.06;5039174;28;20280;-66
2021/06/18 05:55:57;;;;;;;6.47;4.90;;;;;;;21.77;94.62;97316.22;5030609;28;20292;-65
2021/06/18 05:58:25;;;;;;;7.70;5.53;;;;;;;21.77;95.20;97318.78;5037065;28;20267;-66
2021/06/18 06:00:51;;;;;;;6.47;5.87;;;;;;;21.78;95.47;97323.06;5032852;28;20245;-66
2021/06/18 06:03:19;;;;;;;8.77;5.77;;;;;;;21.78;96.29;97319.63;5034500;28;20198;-67
2021/06/18 06:05:45;;;;;;;7.87;5.80;;;;;;;21.77;96.76;97318.78;5031138;28;20274;-63
2021/06/18 06:08:12;;;;;;;10.90;6.03;;;;;;;21.78;96.53;97315.41;5018326;28;20300;-66
2021/06/18 06:10:44;;;;;;;6.33;5.73;;;;;;;21.79;96.25;97319.66;5034367;28;20199;-66
2021/06/18 06:13:10;;;;;;;10.27;5.67;;;;;;;21.79;96.21;97318.84;5029480;28;20679;-65
2021/06/18 06:15:37;;;;;;;8.17;5.70;;;;;;;21.80;96.90;97310.31;5032462;28;20296;-66
2021/06/18 06:18:04;;;;;;;6.60;5.67;;;;;;;21.81;96.55;97317.16;5035149;28;20216;-66
2021/06/18 06:20:31;;;;;;;10.90;6.07;;;;;;;21.80;96.52;97308.63;5036469;28;20224;-65
2021/06/18 06:22:57;;;;;;;6.80;6.20;;;;;;;21.81;96.54;97306.91;5033057;28;20701;-65
2021/06/18 06:25:24;;;;;;;8.00;5.33;;;;;;;21.81;96.45;97312.91;5019853;28;20301;-64
2021/06/18 06:27:50;;;;;;;7.43;5.93;;;;;;;21.82;96.08;97307.00;5016885;28;20789;-64
2021/06/18 06:30:17;;;;;;;7.33;5.73;;;;;;;21.82;95.66;97308.69;5020008;28;20206;-63
2021/06/18 06:32:44;;;;;;;6.30;5.70;;;;;;;21.82;95.48;97311.22;5016311;28;20209;-66
2021/06/18 06:35:11;;;;;;;7.70;6.03;;;;;;;21.81;95.29;97315.47;5021643;28;20659;-64
2021/06/18 06:37:37;;;;;;;7.67;5.63;;;;;;;21.81;95.08;97312.03;5014644;28;20249;-66
2021/06/18 06:40:06;;;;;;;7.27;6.07;;;;;;;21.82;95.33;97316.34;5024580;28;20233;-66
2021/06/18 06:42:32;;;;;;;5.60;5.10;;;;;;;21.82;95.54;97316.34;5022506;28;20327;-66
2021/06/18 06:44:59;;;;;;;6.77;6.07;;;;;;;21.81;95.77;97317.16;5027442;28;20293;-66
2021/06/18 06:47:25;;;;;;;7.20;5.90;;;;;;;21.81;95.88;97324.81;5024758;28;20229;-64
2021/06/18 06:49:52;;;;;;;7.33;5.73;;;;;;;21.82;95.97;97322.34;5029729;28;20651;-66
2021/06/18 06:52:19;;;;;;;9.10;5.87;;;;;;;21.80;96.27;97321.44;5036628;28;20233;-65
2021/06/18 06:54:46;;;;;;;6.87;6.03;;;;;;;21.71;96.15;97293.03;5032079;28;20675;-66
2021/06/18 06:57:15;;;;;;;7.00;5.30;;;;;;;21.82;95.79;97316.34;5030966;28;20231;-66
2021/06/18 06:59:42;;;;;;;6.10;5.57;;;;;;;21.83;95.88;97318.06;5002029;28;20761;-68
2021/06/18 07:02:09;;;;;;;8.07;5.70;;;;;;;21.83;95.75;97316.38;5029595;28;20228;-65
2021/06/18 07:04:36;;;;;;;10.73;5.77;;;;;;;21.83;96.35;97312.94;5024074;28;20233;-64
2021/06/18 07:07:02;;;;;;;7.00;6.00;;;;;;;21.83;95.84;97308.72;5018840;28;20279;-67
2021/06/18 07:09:29;;;;;;;7.17;5.70;;;;;;;21.84;95.51;97312.16;5016821;28;20693;-67
2021/06/18 07:11:56;;;;;;;7.57;6.00;;;;;;;21.83;95.23;97320.63;5023107;28;20196;-63
2021/06/18 07:14:22;;;;;;;11.23;6.33;;;;;;;21.83;95.77;97318.94;5033492;28;20554;-66
2021/06/18 07:16:49;;;;;;;8.40;6.43;;;;;;;21.83;95.73;97329.19;5041002;28;20288;-65
2021/06/18 07:19:15;;;;;;;9.27;6.47;;;;;;;21.83;95.53;97323.19;5032886;28;20245;-64
2021/06/18 07:21:42;;;;;;;9.77;5.83;;;;;;;21.82;95.57;97326.59;5041849;28;20253;-65
2021/06/18 07:24:09;;;;;;;12.03;6.17;;;;;;;21.83;95.71;97331.72;5035602;28;20237;-66
2021/06/18 07:26:35;;;;;;;7.23;6.00;;;;;;;21.82;95.45;97322.34;5033934;28;20289;-64
2021/06/18 07:29:02;;;;;;;8.63;6.07;;;;;;;21.81;95.40;97318.03;5019463;28;20255;-66
2021/06/18 07:31:28;;;;;;;8.93;6.07;;;;;;;21.81;95.29;97319.72;5032875;28;20636;-65
2021/06/18 07:33:55;;;;;;;8.00;5.70;;;;;;;21.81;95.59;97319.72;5023543;28;20618;-64
2021/06/18 07:36:22;;;;;;;7.67;6.03;;;;;;;21.80;95.77;97313.75;5019383;28;20241;-65
2021/06/18 07:38:49;;;;;;;6.60;5.73;;;;;;;21.66;95.49;97298.03;5022018;28;20669;-66
2021/06/18 07:41:15;;;;;;;11.90;5.50;;;;;;;21.81;95.57;97314.59;5021853;28;20668;-63
2021/06/18 07:43:42;;;;;;;7.67;5.67;;;;;;;21.80;95.42;97318.00;5029077;28;20296;-65
2021/06/18 07:46:09;;;;;;;11.93;6.17;;;;;;;21.79;95.42;97314.56;5021647;28;20702;-66
2021/06/18 07:48:38;;;;;;;7.77;5.57;;;;;;;21.79;95.37;97306.88;5033830;28;20609;-65
2021/06/18 07:51:05;;;;;;;7.40;6.47;;;;;;;21.79;95.40;97308.59;5035728;28;20244;-64
2021/06/18 07:53:32;;;;;;;8.50;5.53;;;;;;;21.79;95.44;97318.84;5032745;28;20298;-65
2021/06/18 07:55:58;;;;;;;9.37;6.30;;;;;;;21.78;95.76;97304.28;5034553;28;20702;-66
2021/06/18 07:58:25;;;;;;;9.27;6.27;;;;;;;21.77;95.59;97311.13;5034454;28;20276;-63
2021/06/18 08:00:51;;;;;;;7.90;5.73;;;;;;;21.76;95.69;97311.94;5024609;28;20352;-66
2021/06/18 08:03:18;;;;;;;9.50;6.10;;;;;;;21.76;95.67;97311.09;5027398;28;20666;-65
2021/06/18 08:05:45;;;;;;;11.50;5.43;;;;;;;21.75;95.51;97312.75;5026522;28;20272;-63
2021/06/18 08:08:12;;;;;;;7.10;5.57;;;;;;;21.76;95.66;97311.94;5028962;28;20221;-65
2021/06/18 08:10:50;;;;;;;8.50;5.67;;;;;;;21.76;95.58;97311.09;5024981;28;20277;-65
2021/06/18 08:13:16;;;;;;;5.90;5.23;;;;;;;21.75;95.41;97301.66;5042505;28;20669;-65
2021/06/18 08:15:43;;;;;;;7.30;5.03;;;;;;;21.75;95.34;97307.66;5046050;28;20674;-65
2021/06/18 08:18:09;;;;;;;6.90;5.53;;;;;;;21.76;95.71;97305.97;5044880;28;20236;-65
2021/06/18 08:20:36;;;;;;;6.13;5.53;;;;;;;21.75;95.29;97311.88;5045641;28;20227;-63
2021/06/18 08:23:02;;;;;;;6.80;6.00;;;;;;;21.76;96.19;97305.97;5041127;28;20204;-65
2021/06/18 08:25:29;;;;;;;8.97;6.13;;;;;;;21.60;95.75;97287.66;5047703;28;20232;-65
2021/06/18 08:27:56;;;;;;;7.77;5.50;;;;;;;21.75;95.61;97305.09;5042697;28;20250;-65
2021/06/18 08:30:24;;;;;;;6.73;5.50;;;;;;;21.77;95.67;97300.00;5041291;28;20232;-65
2021/06/18 08:32:52;;;;;;;7.67;5.90;;;;;;;21.76;95.99;97308.53;5033232;28;20234;-65
2021/06/18 08:35:19;;;;;;;6.90;5.80;;;;;;;21.61;96.24;97276.56;5036224;28;20213;-65
2021/06/18 08:37:46;;;;;;;6.17;5.57;;;;;;;21.16;96.25;97197.84;5043328;28;20285;-64
2021/06/18 08:40:13;;;;;;;6.17;5.57;;;;;;;21.75;96.43;97299.09;5023553;28;20232;-66
2021/06/18 08:42:40;;;;;;;7.10;5.50;;;;;;;21.31;96.39;97222.13;5030198;28;20279;-65
2021/06/18 08:45:07;;;;;;;6.43;5.63;;;;;;;21.74;96.23;97295.69;5045132;28;20193;-65
2021/06/18 08:47:35;;;;;;;8.13;5.20;;;;;;;21.74;95.91;97295.69;5039566;28;20244;-65
2021/06/18 08:50:02;;;;;;;9.73;5.80;;;;;;;21.75;95.91;97304.22;5039715;28;20197;-65
2021/06/18 08:52:28;;;;;;;7.50;5.70;;;;;;;21.73;96.26;97304.13;5037342;28;20221;-65
2021/06/18 08:54:55;;;;;;;7.27;5.30;;;;;;;21.73;95.91;97308.41;5041603;28;20269;-63
2021/06/18 08:57:22;;;;;;;6.90;6.10;;;;;;;21.74;95.72;97308.47;5010181;28;20247;-65
2021/06/18 08:59:50;;;;;;;5.83;5.10;;;;;;;21.74;95.76;97305.94;5011800;28;20295;-65
2021/06/18 09:02:16;;;;;;;6.83;5.60;;;;;;;21.73;95.75;97305.84;5025414;28;20713;-65
2021/06/18 09:05:03;;;;;;;6.40;5.57;;;;;;;21.73;95.77;97310.13;5023879;28;20206;-66
2021/06/18 09:07:53;;;;;;;9.53;5.57;;;;;;;21.63;95.61;97286.84;5026705;28;20202;-65
2021/06/18 09:10:22;;;;;;;6.47;5.87;;;;;;;21.75;95.44;97304.22;5023814;28;20205;-65
2021/06/18 09:13:05;;;;;;;8.80;5.60;;;;;;;21.73;95.60;97299.91;5037406;28;20227;-66
2021/06/18 09:15:32;;;;;;;6.07;5.47;;;;;;;21.74;95.54;97308.47;5037414;28;20895;-65
2021/06/18 09:18:27;;;;;;;6.97;5.43;;;;;;;21.73;95.66;97301.59;5040346;28;20309;-65
2021/06/18 09:21:13;;;;;;;7.27;5.20;;;;;;;21.60;95.54;97279.09;5059623;28;20197;-67
2021/06/18 09:23:44;;;;;;;6.67;5.47;;;;;;;21.74;95.44;97305.94;5034851;28;20210;-65
2021/06/18 09:26:28;;;;;;;6.20;5.63;;;;;;;21.74;95.60;97300.81;5037346;28;20627;-66
2021/06/18 09:29:08;;;;;;;6.73;6.03;;;;;;;21.73;95.64;97303.28;5040095;28;20216;-66
2021/06/18 09:31:46;;;;;;;7.63;5.90;;;;;;;21.61;95.65;97288.50;5037907;28;20233;-66
2021/06/18 09:34:13;;;;;;;7.00;5.60;;;;;;;21.71;95.59;97311.78;5042610;28;20201;-66
2021/06/18 09:36:40;;;;;;;7.17;5.60;;;;;;;21.71;95.80;97313.50;5034434;28;20194;-64
2021/06/18 09:39:13;;;;;;;7.43;5.97;;;;;;;21.71;95.30;97309.22;5033339;28;20252;-65
2021/06/18 09:41:40;;;;;;;6.63;5.70;;;;;;;21.70;95.39;97309.19;5036527;28;20225;-63
2021/06/18 09:44:09;;;;;;;7.00;5.27;;;;;;;21.25;95.13;97228.75;5036287;28;20205;-65
2021/06/18 09:46:43;;;;;;;6.17;5.37;;;;;;;21.72;95.28;97307.53;5005600;28;20197;-64
2021/06/18 09:49:32;;;;;;;5.90;5.40;;;;;;;21.70;95.41;97301.50;5035817;28;20228;-65
2021/06/18 09:52:13;;;;;;;6.43;5.03;;;;;;;21.70;95.32;97299.81;5028233;28;20213;-65
2021/06/18 09:54:42;;;;;;;5.40;4.90;;;;;;;21.71;95.34;97304.09;5034191;28;20244;-65
2021/06/18 09:57:17;;;;;;;5.97;5.37;;;;;;;21.71;95.09;97304.09;5035031;28;20609;-64
2021/06/18 09:59:47;;;;;;;5.63;5.13;;;;;;;21.71;95.16;97300.69;5024712;28;20662;-64
2021/06/18 10:02:13;;;;;;;5.80;5.13;;;;;;;21.71;95.07;97309.22;5035486;28;20253;-65
2021/06/18 10:04:41;;;;;;;6.33;5.23;;;;;;;21.72;95.36;97304.97;5043831;28;20205;-65
2021/06/18 10:07:09;;;;;;;6.77;5.17;;;;;;;21.74;95.16;97313.59;5030037;28;20206;-66
2021/06/18 10:09:39;;;;;;;5.70;5.20;;;;;;;21.73;95.12;97312.69;5027493;28;20375;-65
2021/06/18 10:12:06;;;;;;;5.77;5.17;;;;;;;21.72;95.06;97310.09;5028091;28;20228;-63
2021/06/18 10:14:33;;;;;;;5.83;5.33;;;;;;;21.71;94.62;97311.78;5023990;28;20220;-65
2021/06/18 10:17:00;;;;;;;6.17;5.57;;;;;;;21.71;94.83;97316.88;5030906;28;20252;-65
2021/06/18 10:19:30;;;;;;;5.23;4.77;;;;;;;21.60;94.94;97281.66;5037452;28;20250;-65
2021/06/18 10:22:11;;;;;;;5.27;4.77;;;;;;;21.58;94.82;97273.94;5037512;28;20256;-65
2021/06/18 10:24:44;;;;;;;6.57;5.30;;;;;;;19.67;94.58;96944.53;4999419;28;20197;-66
2021/06/18 10:27:11;;;;;;;5.03;4.63;;;;;;;21.70;94.85;97291.28;5024255;28;20261;-66
2021/06/18 10:29:40;;;;;;;5.80;5.30;;;;;;;21.24;94.92;97211.69;5036563;28;20217;-66
2021/06/18 10:32:28;;;;;;;5.27;4.77;;;;;;;21.70;94.80;97294.72;5036979;28;20724;-66
2021/06/18 10:34:58;;;;;;;5.53;5.03;;;;;;;21.71;94.63;97290.47;5041794;28;20683;-63
2021/06/18 10:37:26;;;;;;;5.27;4.77;;;;;;;21.70;94.81;97289.59;5035262;28;20235;-66
2021/06/18 10:40:12;;;;;;;6.67;5.00;;;;;;;21.71;94.79;97287.91;5036130;28;20228;-66
2021/06/18 10:43:11;;;;;;;6.03;4.30;;;;;;;21.71;94.75;97285.34;5028133;28;20669;-66
2021/06/18 10:45:57;;;;;;;5.30;4.80;;;;;;;21.71;94.74;97295.59;5037103;28;20194;-65
2021/06/18 10:48:46;;;;;;;5.17;4.77;;;;;;;21.71;94.94;97283.63;5031820;28;20334;-65
2021/06/18 10:51:25;;;;;;;6.40;5.37;;;;;;;21.72;95.53;97287.06;5035392;28;21889;-65
2021/06/18 10:53:54;;;;;;;5.60;5.10;;;;;;;21.73;95.67;97292.22;5041388;28;20229;-65
2021/06/18 10:56:21;;;;;;;6.67;5.00;;;;;;;21.73;95.17;97286.22;5035428;28;20232;-66
2021/06/18 10:59:04;;;;;;;5.47;5.00;;;;;;;21.73;95.13;97284.56;5006855;28;20742;-65
2021/06/18 11:01:31;;;;;;;5.77;5.17;;;;;;;21.75;94.82;97283.75;5024442;28;20733;-66
2021/06/18 11:04:04;;;;;;;6.73;4.93;;;;;;;21.62;94.91;97262.09;5023374;28;20212;-66
2021/06/18 11:06:47;;;;;;;6.33;5.30;;;;;;;21.75;94.88;97282.06;5014270;28;20270;-66
2021/06/18 11:09:42;;;;;;;6.73;4.83;;;;;;;21.76;95.09;97282.94;5036944;28;20221;-65
2021/06/18 11:12:34;;;;;;;6.53;5.60;;;;;;;21.76;95.28;97280.38;5033572;28;20245;-66
2021/06/18 11:15:30;;;;;;;5.87;5.30;;;;;;;20.94;95.09;97140.22;5015764;28;20288;-66
2021/06/18 11:18:03;;;;;;;7.20;5.30;;;;;;;21.76;95.15;97281.22;5023649;28;20237;-65
2021/06/18 11:20:33;;;;;;;5.53;5.03;;;;;;;21.76;95.33;97277.84;5034202;28;20201;-65
2021/06/18 11:23:14;;;;;;;10.47;6.23;;;;;;;21.77;95.33;97271.88;5029787;28;20222;-66
2021/06/18 11:25:41;;;;;;;9.73;5.57;;;;;;;21.78;95.50;97276.16;5032441;28;20197;-65
2021/06/18 11:28:19;;;;;;;5.67;5.07;;;;;;;21.77;95.34;97262.53;5032499;28;20561;-65
2021/06/18 11:30:56;;;;;;;6.90;5.30;;;;;;;21.78;95.51;97263.34;5029084;28;20926;-65
2021/06/18 11:33:40;;;;;;;7.43;5.87;;;;;;;21.79;95.41;97263.41;5027066;28;20240;-66
2021/06/18 11:36:17;;;;;;;6.63;5.80;;;;;;;21.80;95.52;97260.03;5031884;28;20678;-66
2021/06/18 11:38:45;;;;;;;9.87;5.90;;;;;;;21.67;95.40;97234.94;5028949;28;20227;-65
2021/06/18 11:41:12;;;;;;;5.83;5.23;;;;;;;21.81;95.27;97258.31;5025201;28;20219;-62
2021/06/18 11:43:39;;;;;;;5.57;5.00;;;;;;;21.81;95.37;97255.75;5020238;28;20228;-65
2021/06/18 11:46:06;;;;;;;5.27;4.77;;;;;;;21.69;95.29;97236.72;5019963;28;20220;-63